Time;durP1;ratioP1;P1;durP2;ratioP2;P2;SDS_P1;SDS_P2;PMS_P1;PMS_P2;Temp;Humidity;BMP_temperature;BMP_pressure;BME280_temperature;BME280_humidity;BME280_pressure;Samples;Min_cycle;Max_cycle;Signal;HPM_P1;HPM_P2
2024/01/19 00:01:05;;;;;;;22.95;10.63;;;256.40;2252.80;;;;;;5115356;28;20069;-68
2024/01/19 00:03:31;;;;;;;14.00;8.15;;;256.20;2252.80;;;;;;5115467;28;20569;-74
2024/01/19 00:05:57;;;;;;;16.08;8.90;;;256.10;2252.80;;;;;;5116056;28;20438;-68
2024/01/19 00:08:23;;;;;;;18.33;9.27;;;256.10;2252.80;;;;;;5115556;28;20016;-67
2024/01/19 00:10:48;;;;;;;16.15;8.30;;;256.20;2252.80;;;;;;5114735;28;20064;-73
2024/01/19 00:16:43;;;;;;;21.35;11.02;;;256.30;2252.80;;;;;;5115847;28;20096;-75
2024/01/19 00:19:09;;;;;;;24.00;13.35;;;256.40;2252.80;;;;;;5114708;28;20373;-70
2024/01/19 00:21:46;;;;;;;29.60;16.13;;;256.40;2252.80;;;;;;5115247;28;20518;-77
2024/01/19 00:24:13;;;;;;;24.67;13.45;;;256.50;2252.80;;;;;;5097606;28;20446;-66
2024/01/19 00:26:40;;;;;;;22.75;11.43;;;256.50;2252.80;;;;;;5114807;28;20020;-69
2024/01/19 00:29:09;;;;;;;18.25;10.93;;;256.70;2252.80;;;;;;5115474;28;20079;-68
2024/01/19 00:31:35;;;;;;;20.02;10.82;;;256.60;2252.80;;;;;;5115867;28;20076;-68
2024/01/19 00:34:02;;;;;;;17.80;10.50;;;256.70;2252.80;;;;;;5115379;28;20458;-73
2024/01/19 00:36:28;;;;;;;16.13;9.38;;;256.80;2252.80;;;;;;5115658;28;20534;-73
2024/01/19 00:38:57;;;;;;;15.93;8.88;;;256.80;2252.80;;;;;;5116178;28;20513;-71
2024/01/19 00:41:23;;;;;;;16.13;8.20;;;256.80;2252.80;;;;;;5115602;28;20465;-68
2024/01/19 00:44:09;;;;;;;20.35;9.20;;;256.90;2252.80;;;;;;5114790;28;20469;-73
2024/01/19 00:46:35;;;;;;;16.90;8.30;;;281.60;2278.40;;;;;;5052734;28;20514;-75
2024/01/19 00:49:04;;;;;;;17.00;8.55;;;281.60;2278.40;;;;;;5052660;28;20033;-68
2024/01/19 00:51:30;;;;;;;16.15;8.85;;;281.60;2278.40;;;;;;5053262;28;20275;-70
2024/01/19 00:53:58;;;;;;;17.15;8.80;;;281.80;2278.40;;;;;;5052244;28;20123;-67
2024/01/19 00:56:25;;;;;;;21.60;11.65;;;281.60;2278.40;;;;;;5052483;28;20468;-68
2024/01/19 01:02:13;;;;;;;29.20;14.85;;;282.00;2278.40;;;;;;5052345;28;20085;-69
2024/01/19 01:04:38;;;;;;;27.48;14.52;;;281.80;2278.40;;;;;;5036299;28;20486;-74
2024/01/19 01:07:04;;;;;;;18.23;9.10;;;281.60;2278.40;;;;;;5053413;28;20456;-67
2024/01/19 01:09:31;;;;;;;15.27;8.80;;;281.60;2278.40;;;;;;5052212;28;20542;-72
2024/01/19 01:11:57;;;;;;;18.38;9.23;;;281.60;2278.40;;;;;;5052678;28;20519;-75
2024/01/19 01:14:23;;;;;;;17.80;9.63;;;281.60;2278.40;;;;;;5055642;28;20344;-70
2024/01/19 01:16:49;;;;;;;16.23;9.50;;;256.90;2252.80;;;;;;5068322;28;20038;-68
2024/01/19 01:19:15;;;;;;;17.15;9.80;;;256.80;2252.80;;;;;;5118548;28;20020;-75
2024/01/19 01:21:41;;;;;;;18.30;10.27;;;256.70;2252.80;;;;;;5119555;28;20110;-66
2024/01/19 01:24:07;;;;;;;19.52;10.77;;;256.50;2252.80;;;;;;5118682;28;20027;-70
2024/01/19 01:26:33;;;;;;;20.13;11.10;;;256.50;2252.80;;;;;;5118741;28;20026;-66
2024/01/19 01:32:22;;;;;;;17.30;11.20;;;256.40;2252.80;;;;;;5119195;28;20054;-73
2024/01/19 01:34:48;;;;;;;19.48;11.90;;;256.30;2252.80;;;;;;5119026;28;20339;-73
2024/01/19 01:37:17;;;;;;;25.38;13.35;;;256.30;2252.80;;;;;;5118691;28;20035;-76
2024/01/19 01:39:45;;;;;;;23.52;13.68;;;256.30;2252.80;;;;;;5118325;28;20515;-74
2024/01/19 01:42:14;;;;;;;24.38;13.43;;;256.30;2252.80;;;;;;5118931;28;20442;-67
2024/01/19 01:44:43;;;;;;;25.42;13.18;;;256.30;2252.80;;;;;;5118492;28;20366;-73
2024/01/19 01:47:09;;;;;;;23.95;13.18;;;256.30;2252.80;;;;;;5100618;28;20362;-75
2024/01/19 01:49:36;;;;;;;21.10;11.02;;;256.20;2252.80;;;;;;5119091;28;20456;-73
2024/01/19 01:52:03;;;;;;;18.83;11.15;;;256.20;2252.80;;;;;;5118201;28;20024;-67
2024/01/19 01:54:29;;;;;;;22.70;12.18;;;256.20;2252.80;;;;;;5118338;28;20499;-67
2024/01/19 01:56:56;;;;;;;20.42;11.90;;;256.20;2252.80;;;;;;5118130;28;20515;-75
2024/01/19 02:02:47;;;;;;;18.67;10.68;;;256.20;2252.80;;;;;;5117804;28;20027;-75
2024/01/19 02:05:13;;;;;;;20.27;9.57;;;256.20;2252.80;;;;;;5100564;28;20087;-68
2024/01/19 02:07:39;;;;;;;15.13;8.95;;;256.10;2252.80;;;;;;5120067;28;20424;-75
2024/01/19 02:10:05;;;;;;;18.80;8.95;;;256.20;2252.80;;;;;;5119643;28;20099;-71
2024/01/19 02:12:32;;;;;;;19.83;9.93;;;256.20;2252.80;;;;;;5117377;28;20026;-71
2024/01/19 02:14:58;;;;;;;19.95;8.40;;;256.20;2252.80;;;;;;5117631;28;20530;-69
2024/01/19 02:17:26;;;;;;;37.47;15.80;;;256.20;2252.80;;;;;;5118212;28;20020;-69
2024/01/19 02:19:53;;;;;;;33.03;14.27;;;256.20;2252.80;;;;;;5117883;28;20469;-72
2024/01/19 02:22:20;;;;;;;12.57;7.60;;;256.10;2252.80;;;;;;5112534;28;20466;-75
2024/01/19 02:24:49;;;;;;;14.65;7.97;;;256.00;2252.80;;;;;;5128284;27;20142;-67
2024/01/19 02:27:15;;;;;;;15.07;8.48;;;231.20;2252.80;;;;;;5134945;27;20521;-73
2024/01/19 02:29:49;;;;;;;14.18;8.00;;;231.20;2252.80;;;;;;5134538;27;20023;-67
2024/01/19 02:32:14;;;;;;;13.88;7.55;;;231.10;2252.80;;;;;;5134605;27;20122;-67
2024/01/19 02:34:40;;;;;;;12.35;7.22;;;230.90;2252.80;;;;;;5134146;27;20099;-67
2024/01/19 02:37:06;;;;;;;13.10;7.53;;;230.80;2252.80;;;;;;5133346;27;20035;-70
2024/01/19 02:39:32;;;;;;;11.68;7.63;;;230.70;2252.80;;;;;;5107702;27;20073;-73
2024/01/19 02:41:58;;;;;;;12.32;7.20;;;230.50;2252.80;;;;;;5111016;28;20027;-69
2024/01/19 02:44:23;;;;;;;13.25;8.05;;;230.50;2252.80;;;;;;5113352;28;20527;-67
2024/01/19 02:46:49;;;;;;;12.68;8.02;;;230.40;2252.80;;;;;;5113231;27;20030;-70
2024/01/19 02:49:15;;;;;;;13.18;8.05;;;205.70;2252.80;;;;;;5114510;28;20034;-67
2024/01/19 02:51:40;;;;;;;12.02;8.00;;;205.60;2252.80;;;;;;5113780;28;20030;-68
2024/01/19 02:54:06;;;;;;;11.48;7.70;;;205.60;2252.80;;;;;;5113742;27;20043;-67
2024/01/19 02:56:32;;;;;;;12.00;8.02;;;205.50;2252.80;;;;;;5124121;27;20703;-69
2024/01/19 02:58:57;;;;;;;12.30;7.65;;;205.50;2252.80;;;;;;5124169;27;20075;-73
2024/01/19 03:01:23;;;;;;;11.65;7.55;;;205.50;2252.80;;;;;;5108028;28;20027;-68
2024/01/19 03:03:49;;;;;;;12.07;7.60;;;205.40;2252.80;;;;;;5114254;27;20027;-68
2024/01/19 03:06:14;;;;;;;12.23;8.10;;;205.40;2252.80;;;;;;5133969;27;20029;-70
2024/01/19 03:08:40;;;;;;;12.85;8.40;;;205.40;2252.80;;;;;;5135992;27;20023;-71
2024/01/19 03:11:06;;;;;;;13.77;8.30;;;205.40;2252.80;;;;;;5137203;27;20475;-69
2024/01/19 03:16:54;;;;;;;14.13;8.88;;;205.30;2252.80;;;;;;5136822;27;20067;-76
2024/01/19 03:19:20;;;;;;;15.38;9.30;;;205.20;2252.80;;;;;;5137653;27;20023;-71
2024/01/19 03:21:46;;;;;;;14.07;9.63;;;205.20;2252.80;;;;;;5137023;27;20071;-73
2024/01/19 03:24:12;;;;;;;14.15;9.52;;;205.20;2252.80;;;;;;5138067;27;20031;-68
2024/01/19 03:26:42;;;;;;;13.27;9.30;;;205.20;2252.80;;;;;;5137025;27;20101;-67
2024/01/19 03:32:30;;;;;;;17.50;9.55;;;205.10;2252.80;;;;;;5137025;27;20041;-67
2024/01/19 03:34:55;;;;;;;15.15;9.98;;;205.10;2252.80;;;;;;5136051;27;20106;-70
2024/01/19 03:37:22;;;;;;;14.82;10.25;;;205.10;2252.80;;;;;;5136534;27;20015;-70
2024/01/19 03:39:48;;;;;;;15.48;10.25;;;205.00;2252.80;;;;;;5136271;27;20529;-70
2024/01/19 03:42:16;;;;;;;16.02;10.38;;;205.20;2252.80;;;;;;5137112;27;20050;-70
2024/01/19 03:48:04;;;;;;;17.55;11.40;;;205.00;2252.80;;;;;;5137207;27;20030;-75
2024/01/19 03:50:33;;;;;;;17.35;11.30;;;205.20;2252.80;;;;;;5137209;27;20522;-68
2024/01/19 03:53:00;;;;;;;17.55;11.82;;;205.00;2252.80;;;;;;5136881;27;20487;-68
2024/01/19 03:55:27;;;;;;;19.15;12.05;;;205.00;2252.80;;;;;;5137079;27;20046;-76
2024/01/19 03:57:53;;;;;;;17.60;11.32;;;205.00;2252.80;;;;;;5137325;27;20464;-70
2024/01/19 04:03:44;;;;;;;15.60;9.02;;;204.90;2252.80;;;;;;5136494;27;20490;-68
2024/01/19 04:06:10;;;;;;;12.93;7.97;;;204.80;2252.80;;;;;;5136391;27;20607;-76
2024/01/19 04:08:37;;;;;;;11.98;7.80;;;;;;;;;;5136574;27;20442;-67
2024/01/19 04:11:03;;;;;;;10.63;7.15;;;204.90;2252.80;;;;;;5136210;28;20454;-66
2024/01/19 04:13:29;;;;;;;10.93;7.20;;;179.90;2252.80;;;;;;5136243;28;20514;-68
2024/01/19 04:18:59;;;;;;;13.07;7.38;;;180.00;2252.80;;;;;;5136438;28;20030;-69
2024/01/19 04:21:25;;;;;;;14.43;7.80;;;;;;;;;;5136204;28;20365;-72
2024/01/19 04:23:51;;;;;;;10.50;7.10;;;179.70;2252.80;;;;;;5136439;28;20457;-67
2024/01/19 04:26:17;;;;;;;15.48;9.57;;;179.40;2201.60;;;;;;5136075;28;20041;-71
2024/01/19 04:28:43;;;;;;;12.27;7.53;;;;;;;;;;5136462;28;20011;-68
2024/01/19 04:34:13;;;;;;;11.40;7.68;;;;;;;;;;5136335;28;20029;-67
2024/01/19 04:36:39;;;;;;;13.90;8.57;;;;;;;;;;5136398;28;20414;-67
2024/01/19 04:39:08;;;;;;;11.77;7.97;;;179.20;2252.80;;;;;;5136431;28;20526;-73
2024/01/19 04:41:34;;;;;;;11.43;7.25;;;154.30;2252.80;;;;;;5135703;28;20449;-66
2024/01/19 04:44:00;;;;;;;13.20;7.53;;;154.10;2252.80;;;;;;5136107;28;20027;-74
2024/01/19 04:46:26;;;;;;;11.85;7.97;;;;;;;;;;5136937;27;20026;-69
2024/01/19 04:48:52;;;;;;;10.52;7.00;;;;;;;;;;5140536;27;20043;-71
2024/01/19 04:51:19;;;;;;;12.02;7.13;;;;;;;;;;5141501;27;20346;-73
2024/01/19 04:53:48;;;;;;;13.50;7.57;;;;;;;;;;5140004;27;20487;-68
2024/01/19 04:56:14;;;;;;;14.25;8.35;;;;;;;;;;5140016;27;20524;-67
2024/01/19 04:58:43;;;;;;;12.85;8.45;;;;;;;;;;5140107;27;20483;-75
2024/01/19 05:04:16;;;;;;;11.85;7.80;;;;;;;;;;5140048;27;20511;-76
2024/01/19 05:06:42;;;;;;;13.77;8.68;;;;;;;;;;5139968;27;20461;-65
2024/01/19 05:09:09;;;;;;;14.63;8.93;;;;;;;;;;5140172;27;20450;-75
2024/01/19 05:11:35;;;;;;;14.15;8.73;;;;;;;;;;5139975;27;20560;-75
2024/01/19 05:14:03;;;;;;;12.85;8.43;;;;;;;;;;5140436;27;20023;-70
2024/01/19 05:19:33;;;;;;;12.73;8.02;;;;;;;;;;5139737;27;20022;-73
2024/01/19 05:21:59;;;;;;;13.00;8.07;;;128.80;2252.80;;;;;;5140053;27;20480;-69
2024/01/19 05:24:25;;;;;;;12.82;8.25;;;128.50;2252.80;;;;;;5139526;27;20454;-67
2024/01/19 05:26:50;;;;;;;13.85;8.65;;;128.40;2252.80;;;;;;5139852;27;20038;-70
2024/01/19 05:29:16;;;;;;;12.65;8.02;;;128.30;2252.80;;;;;;5139477;27;20027;-67
2024/01/19 05:34:46;;;;;;;12.43;8.10;;;;;;;;;;5139655;27;20045;-65
2024/01/19 05:37:15;;;;;;;13.23;8.40;;;;;;;;;;5139386;27;20441;-67
2024/01/19 05:39:42;;;;;;;14.00;8.68;;;;;;;;;;5139812;27;20458;-71
2024/01/19 05:42:08;;;;;;;13.77;8.65;;;;;;;;;;5139708;27;20023;-67
2024/01/19 05:44:34;;;;;;;14.65;9.00;;;;;;;;;;5139360;27;20362;-73
2024/01/19 05:47:00;;;;;;;15.85;9.15;;;;;;;;;;5139553;27;20015;-70
2024/01/19 05:49:26;;;;;;;13.90;8.73;;;;;;;;;;5139545;27;20517;-69
2024/01/19 05:51:53;;;;;;;13.35;8.43;;;;;;;;;;5139121;27;20521;-70
2024/01/19 05:54:19;;;;;;;14.40;8.80;;;;;;;;;;5139070;27;20509;-70
2024/01/19 05:56:45;;;;;;;17.70;8.98;;;;;;;;;;5139541;27;20454;-67
2024/01/19 05:59:11;;;;;;;24.80;10.20;;;;;;;;;;5137376;27;20465;-66
2024/01/19 06:05:03;;;;;;;19.08;8.70;;;128.10;2252.80;;;;;;5138732;27;20034;-73
2024/01/19 06:07:32;;;;;;;19.42;9.38;;;;;;;;;;5139230;27;20011;-70
2024/01/19 06:09:59;;;;;;;18.65;9.32;;;;;;;;;;5138353;27;20465;-65
2024/01/19 06:12:26;;;;;;;19.98;11.00;;;;;;;;;;5138571;27;20514;-66
2024/01/19 06:14:52;;;;;;;18.45;10.88;;;;;;;;;;5138829;27;20441;-69
2024/01/19 06:17:18;;;;;;;15.50;9.18;;;;;;;;;;5138450;27;20480;-76
2024/01/19 06:19:45;;;;;;;14.60;8.30;;;;;;;;;;5138363;27;20441;-66
2024/01/19 06:22:11;;;;;;;13.10;7.57;;;;;;;;;;5138019;27;20481;-69
2024/01/19 06:24:37;;;;;;;13.93;8.07;;;;;;;;;;5138692;27;20453;-66
2024/01/19 06:27:03;;;;;;;15.00;8.77;;;;;;;;;;5137632;27;20495;-69
2024/01/19 06:29:30;;;;;;;16.85;9.00;;;;;;;;;;5138573;27;20457;-70
2024/01/19 06:35:00;;;;;;;16.45;9.25;;;;;;;;;;5138241;27;20022;-67
2024/01/19 06:37:29;;;;;;;14.25;8.10;;;;;;;;;;5138377;27;20040;-65
2024/01/19 06:39:58;;;;;;;15.15;8.82;;;;;;;;;;5137722;27;20464;-66
2024/01/19 06:42:26;;;;;;;17.95;9.48;;;;;;;;;;5137464;27;20032;-71
2024/01/19 06:44:52;;;;;;;14.75;9.20;;;;;;;;;;5138004;27;20496;-66
2024/01/19 06:50:22;;;;;;;18.08;10.02;;;;;;;;;;5138081;27;20373;-68
2024/01/19 06:52:48;;;;;;;19.13;11.40;;;;;;;;;;5137591;27;20549;-70
2024/01/19 06:55:15;;;;;;;17.02;9.70;;;;;;;;;;5138049;27;20461;-69
2024/01/19 06:57:45;;;;;;;16.42;8.55;;;;;;;;;;5137816;27;20521;-66
2024/01/19 07:00:11;;;;;;;17.02;8.35;;;;;;;;;;5137834;27;20488;-67
2024/01/19 07:02:37;;;;;;;15.27;8.13;;;;;;;;;;5138413;27;20433;-75
2024/01/19 07:05:04;;;;;;;15.80;8.30;;;;;;;;;;5137294;27;20533;-70
2024/01/19 07:07:30;;;;;;;14.32;8.27;;;;;;;;;;5137550;27;20500;-72
2024/01/19 07:09:59;;;;;;;19.27;8.43;;;;;;;;;;5136464;27;20466;-73
2024/01/19 07:12:26;;;;;;;16.23;7.97;;;;;;;;;;5136581;27;20533;-67
2024/01/19 07:14:52;;;;;;;15.27;8.90;;;;;;;;;;5137364;27;20484;-66
2024/01/19 07:20:25;;;;;;;18.42;10.02;;;;;;;;;;5137151;27;20404;-65
2024/01/19 07:22:55;;;;;;;13.88;8.35;;;;;;;;;;5137122;27;20318;-69
2024/01/19 07:25:21;;;;;;;16.80;9.50;;;;;;;;;;5136539;27;20526;-72
2024/01/19 07:27:48;;;;;;;17.48;9.18;;;;;;;;;;5137285;27;20462;-77
2024/01/19 07:30:14;;;;;;;13.60;7.07;;;;;;;;;;5137550;27;20480;-68
2024/01/19 07:35:44;;;;;;;14.80;8.02;;;;;;;;;;5136807;27;20112;-72
2024/01/19 07:38:10;;;;;;;15.10;8.60;;;;;;;;;;5130575;27;20019;-65
2024/01/19 07:40:36;;;;;;;31.73;10.88;;;;;;;;;;5134757;27;20495;-72
2024/01/19 07:43:02;;;;;;;17.27;8.13;;;77.30;2227.20;;;;;;5116728;27;20020;-69
2024/01/19 07:45:28;;;;;;;21.25;9.95;;;77.10;2227.20;;;;;;5112531;28;20151;-74
2024/01/19 07:47:54;;;;;;;16.90;9.40;;;;;;;;;;5112357;28;20533;-76
2024/01/19 07:50:20;;;;;;;17.95;10.07;;;76.80;2227.20;;;;;;5105026;28;20032;-69
2024/01/19 07:52:46;;;;;;;20.63;11.65;;;52.10;2227.20;;;;;;5111884;28;20036;-71
2024/01/19 07:55:11;;;;;;;23.75;12.15;;;52.10;2227.20;;;;;;5111011;28;20034;-67
2024/01/19 07:57:37;;;;;;;29.65;13.85;;;52.00;2227.20;;;;;;5112162;28;20116;-71
2024/01/19 08:00:03;;;;;;;16.25;9.10;;;52.10;2227.20;;;;;;5112060;28;20623;-64
2024/01/19 08:02:32;;;;;;;14.95;8.52;;;51.90;2227.20;;;;;;5106897;28;20358;-68
2024/01/19 08:04:58;;;;;;;20.48;10.60;;;51.90;2227.20;;;;;;5103391;27;20377;-69
2024/01/19 08:07:25;;;;;;;19.23;9.65;;;51.90;2227.20;;;;;;5112727;28;20036;-64
2024/01/19 08:09:51;;;;;;;19.52;11.10;;;51.80;2227.20;;;;;;5097719;28;20032;-63
2024/01/19 08:12:17;;;;;;;14.73;8.90;;;51.70;2227.20;;;;;;5110511;28;20039;-64
2024/01/19 08:14:43;;;;;;;17.67;9.23;;;51.60;2227.20;;;;;;5108388;28;20057;-64
2024/01/19 08:17:08;;;;;;;18.80;9.50;;;51.60;2227.20;;;;;;5084618;28;20048;-64
2024/01/19 08:19:35;;;;;;;27.73;13.50;;;51.60;2227.20;;;;;;5124845;28;20076;-67
2024/01/19 08:22:00;;;;;;;16.88;8.90;;;51.60;2227.20;;;;;;5104505;28;20133;-64
2024/01/19 08:24:29;;;;;;;18.98;10.38;;;51.60;2227.20;;;;;;5115749;28;20505;-62
2024/01/19 08:26:54;;;;;;;17.98;9.60;;;51.50;2227.20;;;;;;5112017;28;20119;-67
2024/01/19 08:29:20;;;;;;;17.55;9.48;;;51.60;2227.20;;;;;;5095200;28;20032;-64
2024/01/19 08:31:50;;;;;;;23.92;12.27;;;51.70;2227.20;;;;;;5115538;27;20035;-65
2024/01/19 08:34:19;;;;;;;20.30;11.25;;;51.50;2227.20;;;;;;5115383;28;20466;-62
2024/01/19 08:36:45;;;;;;;19.00;10.45;;;51.60;2227.20;;;;;;5116167;28;20333;-63
2024/01/19 08:39:10;;;;;;;16.17;8.63;;;51.60;2227.20;;;;;;5112620;27;20027;-63
2024/01/19 08:41:43;;;;;;;17.15;9.05;;;51.60;2227.20;;;;;;5110366;28;20024;-67
2024/01/19 08:44:09;;;;;;;19.48;10.35;;;51.50;2227.20;;;;;;5115109;27;20405;-66
2024/01/19 08:46:47;;;;;;;17.63;9.40;;;51.50;2227.20;;;;;;5116366;28;20019;-63
2024/01/19 08:49:15;;;;;;;18.60;9.82;;;51.50;2227.20;;;;;;5115837;28;20031;-64
2024/01/19 08:51:43;;;;;;;17.35;8.90;;;51.50;2227.20;;;;;;5115441;28;20028;-69
2024/01/19 08:54:10;;;;;;;18.83;10.40;;;51.40;2227.20;;;;;;5113598;28;20063;-64
2024/01/19 08:56:36;;;;;;;21.45;11.10;;;51.40;2227.20;;;;;;5115730;28;20019;-64
2024/01/19 08:59:02;;;;;;;22.88;10.93;;;51.40;2227.20;;;;;;5115787;28;20042;-66
2024/01/19 09:01:27;;;;;;;17.85;9.38;;;51.50;2227.20;;;;;;5115347;28;20061;-65
2024/01/19 09:03:53;;;;;;;18.67;9.68;;;51.30;2227.20;;;;;;5110969;28;20073;-63
2024/01/19 09:06:23;;;;;;;18.30;9.32;;;51.30;2227.20;;;;;;5103356;28;20028;-62
2024/01/19 09:08:48;;;;;;;18.88;9.68;;;51.30;2227.20;;;;;;5096231;28;20012;-63
2024/01/19 09:11:14;;;;;;;20.55;10.15;;;51.20;2227.20;;;;;;5105653;28;20049;-66
2024/01/19 09:13:40;;;;;;;18.45;9.18;;;51.20;2227.20;;;;;;5115680;28;20028;-65
2024/01/19 09:16:10;;;;;;;21.35;10.65;;;51.20;2227.20;;;;;;5095810;28;20092;-64
2024/01/19 09:18:37;;;;;;;15.02;8.38;;;51.20;2227.20;;;;;;5087157;28;20020;-64
2024/01/19 09:21:03;;;;;;;16.77;8.10;;;26.50;2201.60;;;;;;5098399;28;20142;-66
2024/01/19 09:23:29;;;;;;;11.45;6.18;;;26.40;2201.60;;;;;;5099382;28;20488;-63
2024/01/19 09:25:55;;;;;;;27.73;13.52;;;26.30;2201.60;;;;;;5103510;28;20036;-64
2024/01/19 09:28:21;;;;;;;43.63;19.50;;;26.40;2201.60;;;;;;5107657;28;20026;-65
2024/01/19 09:30:47;;;;;;;29.17;14.10;;;26.40;2201.60;;;;;;5094732;28;20052;-68
2024/01/19 09:33:16;;;;;;;50.22;22.17;;;26.30;2201.60;;;;;;5093281;28;20031;-66
2024/01/19 09:35:42;;;;;;;40.63;21.35;;;26.30;2201.60;;;;;;5092415;28;20102;-63
2024/01/19 09:38:11;;;;;;;19.88;10.85;;;26.40;2201.60;;;;;;5105325;28;20034;-69
2024/01/19 09:40:40;;;;;;;29.25;15.90;;;26.40;2201.60;;;;;;5100106;28;20218;-63
2024/01/19 09:43:07;;;;;;;41.22;21.08;;;26.30;2201.60;;;;;;5094142;28;20043;-63
2024/01/19 09:45:43;;;;;;;36.83;18.15;;;26.40;2201.60;;;;;;5093616;28;20043;-64
2024/01/19 09:48:22;;;;;;;19.50;10.93;;;26.30;2201.60;;;;;;5094588;28;20031;-65
2024/01/19 09:50:51;;;;;;;21.83;11.25;;;26.30;2201.60;;;;;;5094423;28;20379;-65
2024/01/19 09:53:34;;;;;;;21.35;10.55;;;26.30;2201.60;;;;;;5105091;28;20075;-66
2024/01/19 09:56:01;;;;;;;18.33;9.90;;;26.30;2201.60;;;;;;5114080;27;20111;-63
2024/01/19 09:58:30;;;;;;;16.95;8.23;;;26.30;2201.60;;;;;;5113778;28;20046;-64
2024/01/19 10:00:56;;;;;;;20.85;12.25;;;26.20;2201.60;;;;;;5114645;28;20390;-64
2024/01/19 10:03:23;;;;;;;22.25;10.85;;;26.30;2201.60;;;;;;5111130;28;20032;-68
2024/01/19 10:05:51;;;;;;;29.15;15.95;;;26.30;2201.60;;;;;;5093679;28;20038;-64
2024/01/19 10:08:17;;;;;;;14.32;8.70;;;26.40;2201.60;;;;;;5094393;28;20085;-62
2024/01/19 10:10:43;;;;;;;19.13;11.88;;;26.40;2201.60;;;;;;5093298;28;20474;-63
2024/01/19 10:13:10;;;;;;;23.25;12.40;;;26.50;2201.60;;;;;;5110845;28;20028;-63
2024/01/19 10:15:36;;;;;;;25.95;14.05;;;51.20;2227.20;;;;;;5109806;28;20027;-64
2024/01/19 10:18:03;;;;;;;16.35;8.90;;;51.20;2227.20;;;;;;5108870;28;20030;-64
2024/01/19 10:20:30;;;;;;;16.80;8.27;;;26.50;2201.60;;;;;;5119027;27;20027;-68
2024/01/19 10:22:55;;;;;;;18.35;10.75;;;26.40;2201.60;;;;;;5135417;27;20023;-66
2024/01/19 10:25:21;;;;;;;16.73;8.35;;;26.30;2201.60;;;;;;5114813;27;20528;-64
2024/01/19 10:27:56;;;;;;;19.02;10.77;;;26.40;2201.60;;;;;;5101298;28;20493;-64
2024/01/19 10:30:23;;;;;;;;;;;26.40;2201.60;;;;;;5111921;28;20023;-64
2024/01/19 10:32:51;;;;;;;26.10;14.80;;;26.40;2201.60;;;;;;5112533;28;20011;-63
2024/01/19 10:35:21;;;;;;;22.60;12.80;;;26.50;2201.60;;;;;;5112213;28;20020;-63
2024/01/19 10:37:48;;;;;;;36.75;19.15;;;26.50;2201.60;;;;;;5111211;28;20023;-64
2024/01/19 10:40:14;;;;;;;23.48;13.90;;;51.20;2227.20;;;;;;5111661;28;20027;-74
2024/01/19 10:42:42;;;;;;;23.70;13.75;;;26.40;2201.60;;;;;;5112817;28;20038;-67
2024/01/19 10:45:19;;;;;;;27.48;14.98;;;26.40;2201.60;;;;;;5113009;27;20504;-65
2024/01/19 10:48:06;;;;;;;22.88;12.95;;;26.40;2201.60;;;;;;5110197;28;20051;-64
2024/01/19 10:50:31;;;;;;;13.98;7.07;;;26.40;2201.60;;;;;;5109677;28;20152;-68
2024/01/19 10:53:10;;;;;;;15.95;8.88;;;26.30;2201.60;;;;;;5110183;28;20245;-64
2024/01/19 10:55:36;;;;;;;14.93;8.10;;;26.30;2201.60;;;;;;5108115;28;20042;-70
2024/01/19 10:58:04;;;;;;;14.15;7.78;;;26.20;2201.60;;;;;;5106274;27;20102;-68
2024/01/19 11:00:31;;;;;;;14.57;8.13;;;26.20;2201.60;;;;;;5117492;27;20035;-73
2024/01/19 11:02:59;;;;;;;33.35;18.55;;;26.20;2201.60;;;;;;5118595;27;20027;-66
2024/01/19 11:05:26;;;;;;;22.48;12.25;;;26.30;2201.60;;;;;;5106936;28;20039;-65
2024/01/19 11:07:56;;;;;;;27.52;14.93;;;;;;;;;;5112749;28;20023;-71
2024/01/19 11:10:23;;;;;;;14.13;8.30;;;26.50;2201.60;;;;;;5113079;28;20442;-74
2024/01/19 11:12:55;;;;;;;18.40;9.70;;;26.40;2201.60;;;;;;5110648;27;20015;-65
2024/01/19 11:15:33;;;;;;;30.80;15.20;;;26.30;2201.60;;;;;;5108393;28;20055;-64
2024/01/19 11:18:02;;;;;;;29.95;14.25;;;51.20;2227.20;;;;;;5109054;28;20020;-65
2024/01/19 11:20:33;;;;;;;17.02;9.23;;;26.30;2201.60;;;;;;5107163;28;20034;-65
2024/01/19 11:23:00;;;;;;;24.27;10.73;;;26.20;2201.60;;;;;;5110532;28;20019;-63
2024/01/19 11:25:45;;;;;;;16.23;8.93;;;26.30;2201.60;;;;;;5106620;28;20031;-62
2024/01/19 11:28:21;;;;;;;17.52;9.60;;;26.30;2201.60;;;;;;5099307;28;20038;-66
2024/01/19 11:31:07;;;;;;;21.45;11.25;;;26.30;2201.60;;;;;;5105612;28;20874;-64
2024/01/19 11:33:33;;;;;;;24.60;11.65;;;26.50;2201.60;;;;;;5090455;28;20454;-75
2024/01/19 11:35:59;;;;;;;15.63;9.13;;;26.40;2201.60;;;;;;5110922;28;20103;-63
2024/01/19 11:38:40;;;;;;;16.05;8.75;;;26.40;2201.60;;;;;;5089958;28;20032;-63
2024/01/19 11:41:07;;;;;;;27.98;13.23;;;26.40;2201.60;;;;;;5106817;28;20023;-64
2024/01/19 11:43:39;;;;;;;22.38;11.45;;;26.50;2201.60;;;;;;5112872;27;20056;-64
2024/01/19 11:46:10;;;;;;;26.55;13.57;;;26.40;2201.60;;;;;;5112638;28;20548;-63
2024/01/19 11:48:41;;;;;;;24.90;11.80;;;26.50;2201.60;;;;;;5111912;28;20039;-68
2024/01/19 11:51:11;;;;;;;17.20;9.07;;;26.40;2201.60;;;;;;5111041;28;20015;-69
2024/01/19 11:53:56;;;;;;;17.75;8.93;;;26.20;2201.60;;;;;;5095550;28;20130;-66
2024/01/19 11:56:22;;;;;;;22.95;11.50;;;26.30;2201.60;;;;;;5086852;28;20024;-67
2024/01/19 11:58:48;;;;;;;26.75;13.50;;;26.30;2201.60;;;;;;5082033;28;20534;-64
2024/01/19 12:01:14;;;;;;;18.63;9.70;;;26.30;2201.60;;;;;;5074212;28;20143;-65
2024/01/19 12:03:41;;;;;;;19.13;10.85;;;26.30;2201.60;;;;;;5091310;28;20028;-65
2024/01/19 12:06:07;;;;;;;21.08;11.10;;;26.40;2201.60;;;;;;5089581;28;20038;-64
2024/01/19 12:08:33;;;;;;;24.67;12.75;;;26.40;2201.60;;;;;;5074866;28;20111;-65
2024/01/19 12:11:03;;;;;;;27.17;13.27;;;26.40;2201.60;;;;;;5079223;28;20028;-64
2024/01/19 12:13:32;;;;;;;21.35;10.60;;;26.30;2201.60;;;;;;5092058;28;20017;-63
2024/01/19 12:15:58;;;;;;;16.27;8.85;;;26.40;2201.60;;;;;;5090915;28;20016;-65
2024/01/19 12:18:28;;;;;;;20.27;10.38;;;26.40;2201.60;;;;;;5091340;28;20034;-66
2024/01/19 12:20:57;;;;;;;12.45;6.57;;;26.40;2201.60;;;;;;5096977;28;20397;-65
2024/01/19 12:23:24;;;;;;;14.70;7.95;;;26.30;2201.60;;;;;;5085011;28;20035;-64
2024/01/19 12:25:58;;;;;;;20.88;10.25;;;26.30;2201.60;;;;;;5099087;28;20052;-64
2024/01/19 12:28:24;;;;;;;23.40;11.38;;;26.20;2201.60;;;;;;5089514;28;20032;-63
2024/01/19 12:30:52;;;;;;;20.73;10.48;;;26.20;2201.60;;;;;;5089121;28;20555;-71
2024/01/19 12:33:28;;;;;;;15.57;8.52;;;26.10;2201.60;;;;;;5094537;28;20031;-64
2024/01/19 12:39:21;;;;;;;20.52;9.65;;;26.10;2201.60;;;;;;5095205;28;20035;-64
2024/01/19 12:42:08;;;;;;;18.52;9.32;;;26.10;2201.60;;;;;;5094880;28;20478;-65
2024/01/19 12:44:35;;;;;;;17.10;8.32;;;;;;;;;;5094909;28;20039;-70
2024/01/19 12:47:01;;;;;;;12.38;6.22;;;;;;;;;;5094633;28;20463;-64
2024/01/19 12:49:28;;;;;;;18.08;8.57;;;;;;;;;;5094987;28;20459;-65
2024/01/19 12:51:54;;;;;;;19.63;9.18;;;;;;;;;;5095171;28;20463;-72
2024/01/19 12:54:20;;;;;;;19.55;9.65;;;;;;;;;;5114169;28;20523;-69
2024/01/19 12:56:50;;;;;;;16.20;8.18;;;;;;;;;;5097155;28;20431;-62
2024/01/19 12:59:19;;;;;;;22.25;8.90;;;;;;;;;;5115321;28;20496;-63
2024/01/19 13:01:46;;;;;;;20.92;10.60;;;;;;;;;;5115463;28;20561;-64
2024/01/19 13:04:14;;;;;;;16.48;8.18;;;;;;;;;;5114997;28;20446;-68
2024/01/19 13:06:41;;;;;;;16.38;7.85;;;;;;;;;;5115446;28;20032;-64
2024/01/19 13:09:11;;;;;;;21.13;11.55;;;;;;;;;;5118743;28;20456;-65
2024/01/19 13:11:37;;;;;;;19.52;9.38;;;;;;;;;;5119176;28;20094;-67
2024/01/19 13:14:04;;;;;;;15.57;8.75;;;;;;;;;;5119425;28;20458;-65
2024/01/19 13:16:31;;;;;;;16.88;9.30;;;;;;;;;;5118954;28;20036;-64
2024/01/19 13:19:04;;;;;;;19.73;9.27;;;;;;;;;;5119074;28;20479;-72
2024/01/19 13:24:49;;;;;;;21.30;10.82;;;;;;;;;;5118892;28;20413;-64
2024/01/19 13:27:16;;;;;;;18.77;11.13;;;;;;;;;;5118633;28;20472;-63
2024/01/19 13:29:42;;;;;;;20.20;10.75;;;;;;;;;;5118882;28;20488;-75
2024/01/19 13:32:11;;;;;;;27.20;13.40;;;;;;;;;;5118906;28;20458;-70
2024/01/19 13:34:37;;;;;;;24.73;12.48;;;;;;;;;;5119234;28;20458;-72
2024/01/19 13:37:04;;;;;;;18.33;10.20;;;;;;;;;;5118549;28;20458;-66
2024/01/19 13:39:30;;;;;;;24.30;11.82;;;;;;;;;;5118675;28;20031;-76
2024/01/19 13:41:58;;;;;;;24.67;13.07;;;;;;;;;;5118650;28;20473;-78
2024/01/19 13:44:25;;;;;;;22.58;12.43;;;;;;;;;;5119831;28;20488;-63
2024/01/19 13:46:55;;;;;;;22.20;12.90;;;;;;;;;;5119146;28;20043;-65
2024/01/19 13:49:24;;;;;;;24.70;12.95;;;;;;;;;;5100599;28;20366;-63
2024/01/19 13:55:09;;;;;;;38.70;19.48;;;;;;;;;;5116887;28;20185;-64